sensor_id;sensor_type;location;lat;lon;timestamp;P1;durP1;ratioP1;P2;durP2;ratioP2
10839;SDS011;5473;42.706;23.328;2022-10-16T00:01:42;0.50;;;0.50;;
10839;SDS011;5473;42.706;23.328;2022-10-16T00:04:09;0.40;;;0.40;;
10839;SDS011;5473;42.706;23.328;2022-10-16T00:06:36;0.50;;;0.50;;
10839;SDS011;5473;42.706;23.328;2022-10-16T00:09:03;0.67;;;0.67;;
10839;SDS011;5473;42.706;23.328;2022-10-16T00:11:30;0.50;;;0.50;;
10839;SDS011;5473;42.706;23.328;2022-10-16T00:14:01;0.50;;;0.50;;
10839;SDS011;5473;42.706;23.328;2022-10-16T00:16:31;0.57;;;0.57;;
10839;SDS011;5473;42.706;23.328;2022-10-16T00:18:59;0.40;;;0.40;;
10839;SDS011;5473;42.706;23.328;2022-10-16T00:21:26;0.50;;;0.50;;
10839;SDS011;5473;42.706;23.328;2022-10-16T00:23:55;0.50;;;0.50;;
10839;SDS011;5473;42.706;23.328;2022-10-16T00:26:25;0.50;;;0.50;;
10839;SDS011;5473;42.706;23.328;2022-10-16T00:28:54;0.50;;;0.50;;
10839;SDS011;5473;42.706;23.328;2022-10-16T00:31:22;0.60;;;0.60;;
10839;SDS011;5473;42.706;23.328;2022-10-16T00:33:49;0.50;;;0.50;;
10839;SDS011;5473;42.706;23.328;2022-10-16T00:36:20;0.40;;;0.40;;
10839;SDS011;5473;42.706;23.328;2022-10-16T00:38:49;0.50;;;0.50;;
10839;SDS011;5473;42.706;23.328;2022-10-16T00:41:20;0.50;;;0.50;;
10839;SDS011;5473;42.706;23.328;2022-10-16T00:43:49;0.40;;;0.40;;
10839;SDS011;5473;42.706;23.328;2022-10-16T00:46:19;0.37;;;0.37;;
10839;SDS011;5473;42.706;23.328;2022-10-16T00:48:49;0.50;;;0.50;;
10839;SDS011;5473;42.706;23.328;2022-10-16T00:51:21;0.50;;;0.50;;
10839;SDS011;5473;42.706;23.328;2022-10-16T00:53:51;0.50;;;0.50;;
10839;SDS011;5473;42.706;23.328;2022-10-16T00:56:21;0.40;;;0.40;;
10839;SDS011;5473;42.706;23.328;2022-10-16T00:58:48;0.50;;;0.50;;
10839;SDS011;5473;42.706;23.328;2022-10-16T01:01:15;0.40;;;0.40;;
10839;SDS011;5473;42.706;23.328;2022-10-16T01:03:41;0.50;;;0.50;;
10839;SDS011;5473;42.706;23.328;2022-10-16T01:06:21;0.50;;;0.50;;
10839;SDS011;5473;42.706;23.328;2022-10-16T01:08:55;0.50;;;0.50;;
10839;SDS011;5473;42.706;23.328;2022-10-16T01:11:32;0.50;;;0.50;;
10839;SDS011;5473;42.706;23.328;2022-10-16T01:14:06;0.50;;;0.50;;
10839;SDS011;5473;42.706;23.328;2022-10-16T01:16:42;0.47;;;0.47;;
10839;SDS011;5473;42.706;23.328;2022-10-16T01:19:16;0.40;;;0.40;;
10839;SDS011;5473;42.706;23.328;2022-10-16T01:21:52;0.40;;;0.40;;
10839;SDS011;5473;42.706;23.328;2022-10-16T01:24:25;0.50;;;0.50;;
10839;SDS011;5473;42.706;23.328;2022-10-16T01:27:04;0.50;;;0.50;;
10839;SDS011;5473;42.706;23.328;2022-10-16T01:29:34;0.50;;;0.50;;
10839;SDS011;5473;42.706;23.328;2022-10-16T01:32:08;0.53;;;0.53;;
10839;SDS011;5473;42.706;23.328;2022-10-16T01:34:42;0.50;;;0.50;;
10839;SDS011;5473;42.706;23.328;2022-10-16T01:37:15;0.50;;;0.50;;
10839;SDS011;5473;42.706;23.328;2022-10-16T01:39:47;0.50;;;0.50;;
10839;SDS011;5473;42.706;23.328;2022-10-16T01:42:19;0.50;;;0.50;;
10839;SDS011;5473;42.706;23.328;2022-10-16T01:44:48;0.50;;;0.50;;
10839;SDS011;5473;42.706;23.328;2022-10-16T01:47:19;0.50;;;0.50;;
10839;SDS011;5473;42.706;23.328;2022-10-16T01:49:49;0.50;;;0.50;;
10839;SDS011;5473;42.706;23.328;2022-10-16T01:52:19;0.40;;;0.40;;
10839;SDS011;5473;42.706;23.328;2022-10-16T01:54:50;0.40;;;0.40;;
10839;SDS011;5473;42.706;23.328;2022-10-16T01:57:21;0.50;;;0.50;;
10839;SDS011;5473;42.706;23.328;2022-10-16T01:59:51;0.50;;;0.50;;
10839;SDS011;5473;42.706;23.328;2022-10-16T02:02:21;0.50;;;0.50;;
10839;SDS011;5473;42.706;23.328;2022-10-16T02:04:49;0.60;;;0.60;;
10839;SDS011;5473;42.706;23.328;2022-10-16T02:07:21;0.50;;;0.50;;
10839;SDS011;5473;42.706;23.328;2022-10-16T02:09:48;0.50;;;0.50;;
10839;SDS011;5473;42.706;23.328;2022-10-16T02:12:18;0.50;;;0.50;;
10839;SDS011;5473;42.706;23.328;2022-10-16T02:14:53;0.50;;;0.50;;
10839;SDS011;5473;42.706;23.328;2022-10-16T02:17:22;0.50;;;0.50;;
10839;SDS011;5473;42.706;23.328;2022-10-16T02:19:49;0.50;;;0.50;;
10839;SDS011;5473;42.706;23.328;2022-10-16T02:22:21;0.50;;;0.50;;
10839;SDS011;5473;42.706;23.328;2022-10-16T02:24:53;0.60;;;0.60;;
10839;SDS011;5473;42.706;23.328;2022-10-16T02:27:26;0.50;;;0.50;;
10839;SDS011;5473;42.706;23.328;2022-10-16T02:30:04;0.40;;;0.40;;
10839;SDS011;5473;42.706;23.328;2022-10-16T02:32:33;0.47;;;0.47;;
10839;SDS011;5473;42.706;23.328;2022-10-16T02:35:06;0.40;;;0.40;;
10839;SDS011;5473;42.706;23.328;2022-10-16T02:37:34;0.50;;;0.50;;
10839;SDS011;5473;42.706;23.328;2022-10-16T02:40:02;0.50;;;0.50;;
10839;SDS011;5473;42.706;23.328;2022-10-16T02:42:34;0.60;;;0.60;;
10839;SDS011;5473;42.706;23.328;2022-10-16T02:45:01;0.60;;;0.60;;
10839;SDS011;5473;42.706;23.328;2022-10-16T02:47:28;0.50;;;0.50;;
10839;SDS011;5473;42.706;23.328;2022-10-16T02:49:55;0.57;;;0.57;;
10839;SDS011;5473;42.706;23.328;2022-10-16T02:52:22;0.50;;;0.50;;
10839;SDS011;5473;42.706;23.328;2022-10-16T02:54:49;0.60;;;0.60;;
10839;SDS011;5473;42.706;23.328;2022-10-16T02:57:15;0.50;;;0.50;;
10839;SDS011;5473;42.706;23.328;2022-10-16T02:59:44;0.50;;;0.50;;
10839;SDS011;5473;42.706;23.328;2022-10-16T03:02:11;0.50;;;0.50;;
10839;SDS011;5473;42.706;23.328;2022-10-16T03:04:39;0.40;;;0.40;;
10839;SDS011;5473;42.706;23.328;2022-10-16T03:07:06;0.60;;;0.60;;
10839;SDS011;5473;42.706;23.328;2022-10-16T03:09:33;0.50;;;0.50;;
10839;SDS011;5473;42.706;23.328;2022-10-16T03:12:00;0.57;;;0.57;;
10839;SDS011;5473;42.706;23.328;2022-10-16T03:14:29;0.50;;;0.50;;
10839;SDS011;5473;42.706;23.328;2022-10-16T03:16:57;0.60;;;0.60;;
10839;SDS011;5473;42.706;23.328;2022-10-16T03:19:24;0.50;;;0.50;;
10839;SDS011;5473;42.706;23.328;2022-10-16T03:21:51;0.50;;;0.50;;
10839;SDS011;5473;42.706;23.328;2022-10-16T03:24:18;0.50;;;0.50;;
10839;SDS011;5473;42.706;23.328;2022-10-16T03:26:44;0.50;;;0.50;;
10839;SDS011;5473;42.706;23.328;2022-10-16T03:29:13;0.50;;;0.50;;
10839;SDS011;5473;42.706;23.328;2022-10-16T03:31:39;0.50;;;0.50;;
10839;SDS011;5473;42.706;23.328;2022-10-16T03:34:08;0.50;;;0.50;;
10839;SDS011;5473;42.706;23.328;2022-10-16T03:36:34;0.60;;;0.60;;
10839;SDS011;5473;42.706;23.328;2022-10-16T03:39:01;0.50;;;0.50;;
10839;SDS011;5473;42.706;23.328;2022-10-16T03:41:28;0.60;;;0.60;;
10839;SDS011;5473;42.706;23.328;2022-10-16T03:43:55;0.40;;;0.40;;
10839;SDS011;5473;42.706;23.328;2022-10-16T03:46:22;0.50;;;0.50;;
10839;SDS011;5473;42.706;23.328;2022-10-16T03:48:49;0.57;;;0.57;;
10839;SDS011;5473;42.706;23.328;2022-10-16T03:51:17;0.50;;;0.50;;
10839;SDS011;5473;42.706;23.328;2022-10-16T03:53:43;0.60;;;0.60;;
10839;SDS011;5473;42.706;23.328;2022-10-16T03:56:11;0.50;;;0.50;;
10839;SDS011;5473;42.706;23.328;2022-10-16T03:58:38;0.40;;;0.40;;
10839;SDS011;5473;42.706;23.328;2022-10-16T04:01:05;0.50;;;0.50;;
10839;SDS011;5473;42.706;23.328;2022-10-16T04:03:34;0.43;;;0.43;;
10839;SDS011;5473;42.706;23.328;2022-10-16T04:06:00;0.50;;;0.50;;
10839;SDS011;5473;42.706;23.328;2022-10-16T04:08:28;0.60;;;0.60;;
10839;SDS011;5473;42.706;23.328;2022-10-16T04:10:55;0.60;;;0.60;;
10839;SDS011;5473;42.706;23.328;2022-10-16T04:13:22;0.50;;;0.50;;
10839;SDS011;5473;42.706;23.328;2022-10-16T04:15:50;0.53;;;0.53;;
10839;SDS011;5473;42.706;23.328;2022-10-16T04:18:17;0.60;;;0.60;;
10839;SDS011;5473;42.706;23.328;2022-10-16T04:20:44;0.57;;;0.57;;
10839;SDS011;5473;42.706;23.328;2022-10-16T04:23:12;0.60;;;0.60;;
10839;SDS011;5473;42.706;23.328;2022-10-16T04:25:40;0.50;;;0.50;;
10839;SDS011;5473;42.706;23.328;2022-10-16T04:28:07;0.60;;;0.60;;
10839;SDS011;5473;42.706;23.328;2022-10-16T04:30:33;0.60;;;0.60;;
10839;SDS011;5473;42.706;23.328;2022-10-16T04:33:00;0.60;;;0.60;;
10839;SDS011;5473;42.706;23.328;2022-10-16T04:35:27;0.60;;;0.60;;
10839;SDS011;5473;42.706;23.328;2022-10-16T04:37:53;0.50;;;0.50;;
10839;SDS011;5473;42.706;23.328;2022-10-16T04:40:20;0.50;;;0.50;;
10839;SDS011;5473;42.706;23.328;2022-10-16T04:42:48;0.50;;;0.50;;
10839;SDS011;5473;42.706;23.328;2022-10-16T04:45:15;0.50;;;0.50;;
10839;SDS011;5473;42.706;23.328;2022-10-16T04:47:43;0.60;;;0.60;;
10839;SDS011;5473;42.706;23.328;2022-10-16T04:50:10;0.50;;;0.50;;
10839;SDS011;5473;42.706;23.328;2022-10-16T04:52:37;0.50;;;0.50;;
10839;SDS011;5473;42.706;23.328;2022-10-16T04:55:04;0.53;;;0.53;;
10839;SDS011;5473;42.706;23.328;2022-10-16T04:57:34;0.50;;;0.50;;
10839;SDS011;5473;42.706;23.328;2022-10-16T05:00:02;0.60;;;0.60;;
10839;SDS011;5473;42.706;23.328;2022-10-16T05:02:29;0.60;;;0.60;;
10839;SDS011;5473;42.706;23.328;2022-10-16T05:04:56;0.50;;;0.50;;
10839;SDS011;5473;42.706;23.328;2022-10-16T05:07:25;0.60;;;0.60;;
10839;SDS011;5473;42.706;23.328;2022-10-16T05:09:52;0.60;;;0.60;;
10839;SDS011;5473;42.706;23.328;2022-10-16T05:12:22;0.47;;;0.47;;
10839;SDS011;5473;42.706;23.328;2022-10-16T05:14:50;0.50;;;0.50;;
10839;SDS011;5473;42.706;23.328;2022-10-16T05:17:18;0.50;;;0.50;;
10839;SDS011;5473;42.706;23.328;2022-10-16T05:19:45;0.47;;;0.47;;
10839;SDS011;5473;42.706;23.328;2022-10-16T05:22:11;0.40;;;0.40;;
10839;SDS011;5473;42.706;23.328;2022-10-16T05:24:38;0.30;;;0.30;;
10839;SDS011;5473;42.706;23.328;2022-10-16T05:27:06;0.40;;;0.40;;
10839;SDS011;5473;42.706;23.328;2022-10-16T05:29:33;0.40;;;0.40;;
10839;SDS011;5473;42.706;23.328;2022-10-16T05:32:00;0.40;;;0.40;;
10839;SDS011;5473;42.706;23.328;2022-10-16T05:34:28;0.40;;;0.40;;
10839;SDS011;5473;42.706;23.328;2022-10-16T05:36:55;0.20;;;0.20;;
10839;SDS011;5473;42.706;23.328;2022-10-16T05:39:22;0.30;;;0.30;;
10839;SDS011;5473;42.706;23.328;2022-10-16T05:41:49;0.30;;;0.30;;
10839;SDS011;5473;42.706;23.328;2022-10-16T05:44:17;0.40;;;0.40;;
10839;SDS011;5473;42.706;23.328;2022-10-16T05:46:45;0.30;;;0.30;;
10839;SDS011;5473;42.706;23.328;2022-10-16T05:49:12;0.30;;;0.30;;
10839;SDS011;5473;42.706;23.328;2022-10-16T05:51:41;0.30;;;0.30;;
10839;SDS011;5473;42.706;23.328;2022-10-16T05:54:07;0.30;;;0.30;;
10839;SDS011;5473;42.706;23.328;2022-10-16T05:56:34;0.40;;;0.40;;
10839;SDS011;5473;42.706;23.328;2022-10-16T05:59:02;0.30;;;0.30;;
10839;SDS011;5473;42.706;23.328;2022-10-16T06:01:29;0.30;;;0.30;;
10839;SDS011;5473;42.706;23.328;2022-10-16T06:03:56;0.30;;;0.30;;
10839;SDS011;5473;42.706;23.328;2022-10-16T06:06:24;0.30;;;0.30;;
10839;SDS011;5473;42.706;23.328;2022-10-16T06:08:54;0.20;;;0.20;;
10839;SDS011;5473;42.706;23.328;2022-10-16T06:11:22;0.20;;;0.20;;
10839;SDS011;5473;42.706;23.328;2022-10-16T06:13:51;0.20;;;0.20;;
10839;SDS011;5473;42.706;23.328;2022-10-16T06:16:19;0.30;;;0.30;;
10839;SDS011;5473;42.706;23.328;2022-10-16T06:18:50;0.20;;;0.20;;
10839;SDS011;5473;42.706;23.328;2022-10-16T06:21:18;0.20;;;0.20;;
10839;SDS011;5473;42.706;23.328;2022-10-16T06:23:46;0.20;;;0.20;;
10839;SDS011;5473;42.706;23.328;2022-10-16T06:26:15;0.20;;;0.20;;
10839;SDS011;5473;42.706;23.328;2022-10-16T06:28:43;0.20;;;0.20;;
10839;SDS011;5473;42.706;23.328;2022-10-16T06:31:10;0.20;;;0.20;;
10839;SDS011;5473;42.706;23.328;2022-10-16T06:33:39;0.20;;;0.20;;
10839;SDS011;5473;42.706;23.328;2022-10-16T06:36:07;0.20;;;0.20;;
10839;SDS011;5473;42.706;23.328;2022-10-16T06:38:36;0.20;;;0.20;;
10839;SDS011;5473;42.706;23.328;2022-10-16T06:41:04;0.13;;;0.13;;
10839;SDS011;5473;42.706;23.328;2022-10-16T06:43:37;0.10;;;0.10;;
10839;SDS011;5473;42.706;23.328;2022-10-16T06:46:05;0.20;;;0.20;;
10839;SDS011;5473;42.706;23.328;2022-10-16T06:48:33;0.20;;;0.20;;
10839;SDS011;5473;42.706;23.328;2022-10-16T06:51:01;0.10;;;0.10;;
10839;SDS011;5473;42.706;23.328;2022-10-16T06:53:29;0.10;;;0.10;;
10839;SDS011;5473;42.706;23.328;2022-10-16T06:56:06;0.10;;;0.10;;
10839;SDS011;5473;42.706;23.328;2022-10-16T06:58:33;0.10;;;0.10;;
10839;SDS011;5473;42.706;23.328;2022-10-16T07:01:04;0.10;;;0.10;;
10839;SDS011;5473;42.706;23.328;2022-10-16T07:03:31;0.10;;;0.10;;
10839;SDS011;5473;42.706;23.328;2022-10-16T07:06:02;0.10;;;0.10;;
10839;SDS011;5473;42.706;23.328;2022-10-16T07:08:30;0.10;;;0.10;;
10839;SDS011;5473;42.706;23.328;2022-10-16T07:10:59;0.10;;;0.10;;
10839;SDS011;5473;42.706;23.328;2022-10-16T07:13:26;0.10;;;0.10;;
10839;SDS011;5473;42.706;23.328;2022-10-16T07:15:53;0.10;;;0.10;;
10839;SDS011;5473;42.706;23.328;2022-10-16T07:18:21;0.10;;;0.10;;
10839;SDS011;5473;42.706;23.328;2022-10-16T07:20:51;0.10;;;0.10;;
10839;SDS011;5473;42.706;23.328;2022-10-16T07:23:18;0.10;;;0.10;;
10839;SDS011;5473;42.706;23.328;2022-10-16T07:25:45;0.10;;;0.10;;
10839;SDS011;5473;42.706;23.328;2022-10-16T07:28:12;0.10;;;0.10;;
10839;SDS011;5473;42.706;23.328;2022-10-16T07:30:38;0.10;;;0.10;;
10839;SDS011;5473;42.706;23.328;2022-10-16T07:33:05;0.10;;;0.10;;
10839;SDS011;5473;42.706;23.328;2022-10-16T07:35:33;0.10;;;0.10;;
10839;SDS011;5473;42.706;23.328;2022-10-16T07:38:00;0.10;;;0.10;;
10839;SDS011;5473;42.706;23.328;2022-10-16T07:40:27;0.10;;;0.10;;
10839;SDS011;5473;42.706;23.328;2022-10-16T07:42:53;0.10;;;0.10;;
10839;SDS011;5473;42.706;23.328;2022-10-16T07:45:20;0.10;;;0.10;;
10839;SDS011;5473;42.706;23.328;2022-10-16T07:47:47;0.10;;;0.10;;
10839;SDS011;5473;42.706;23.328;2022-10-16T07:50:14;0.10;;;0.10;;
10839;SDS011;5473;42.706;23.328;2022-10-16T07:52:42;0.10;;;0.10;;
10839;SDS011;5473;42.706;23.328;2022-10-16T07:55:08;0.10;;;0.10;;
10839;SDS011;5473;42.706;23.328;2022-10-16T07:57:35;0.10;;;0.10;;
10839;SDS011;5473;42.706;23.328;2022-10-16T08:00:02;0.10;;;0.10;;
10839;SDS011;5473;42.706;23.328;2022-10-16T08:02:30;0.10;;;0.10;;
10839;SDS011;5473;42.706;23.328;2022-10-16T08:04:57;0.10;;;0.10;;
10839;SDS011;5473;42.706;23.328;2022-10-16T08:07:24;0.10;;;0.10;;
10839;SDS011;5473;42.706;23.328;2022-10-16T08:09:52;0.10;;;0.10;;
10839;SDS011;5473;42.706;23.328;2022-10-16T08:12:21;0.10;;;0.10;;
10839;SDS011;5473;42.706;23.328;2022-10-16T08:14:48;0.10;;;0.10;;
10839;SDS011;5473;42.706;23.328;2022-10-16T08:17:15;0.10;;;0.10;;
10839;SDS011;5473;42.706;23.328;2022-10-16T08:19:44;0.10;;;0.10;;
10839;SDS011;5473;42.706;23.328;2022-10-16T08:22:14;0.10;;;0.10;;
10839;SDS011;5473;42.706;23.328;2022-10-16T08:24:41;0.10;;;0.10;;
10839;SDS011;5473;42.706;23.328;2022-10-16T08:27:09;0.10;;;0.10;;
10839;SDS011;5473;42.706;23.328;2022-10-16T08:29:36;0.10;;;0.10;;
10839;SDS011;5473;42.706;23.328;2022-10-16T08:32:03;0.10;;;0.10;;
10839;SDS011;5473;42.706;23.328;2022-10-16T08:34:30;0.10;;;0.10;;
10839;SDS011;5473;42.706;23.328;2022-10-16T08:36:57;0.10;;;0.10;;
10839;SDS011;5473;42.706;23.328;2022-10-16T08:39:24;0.10;;;0.10;;
10839;SDS011;5473;42.706;23.328;2022-10-16T08:42:04;0.10;;;0.10;;
10839;SDS011;5473;42.706;23.328;2022-10-16T08:44:59;0.10;;;0.10;;
10839;SDS011;5473;42.706;23.328;2022-10-16T08:47:45;0.10;;;0.10;;
10839;SDS011;5473;42.706;23.328;2022-10-16T08:50:18;0.10;;;0.10;;
10839;SDS011;5473;42.706;23.328;2022-10-16T08:52:49;0.10;;;0.10;;
10839;SDS011;5473;42.706;23.328;2022-10-16T08:55:23;0.10;;;0.10;;
10839;SDS011;5473;42.706;23.328;2022-10-16T08:57:58;0.10;;;0.10;;
10839;SDS011;5473;42.706;23.328;2022-10-16T09:00:26;0.10;;;0.10;;
10839;SDS011;5473;42.706;23.328;2022-10-16T09:02:55;0.10;;;0.10;;
10839;SDS011;5473;42.706;23.328;2022-10-16T09:08:17;0.10;;;0.10;;
10839;SDS011;5473;42.706;23.328;2022-10-16T09:10:54;0.10;;;0.10;;
10839;SDS011;5473;42.706;23.328;2022-10-16T09:13:28;0.10;;;0.10;;
10839;SDS011;5473;42.706;23.328;2022-10-16T09:16:07;0.10;;;0.10;;
10839;SDS011;5473;42.706;23.328;2022-10-16T09:18:43;0.10;;;0.10;;
10839;SDS011;5473;42.706;23.328;2022-10-16T09:21:18;0.10;;;0.10;;
10839;SDS011;5473;42.706;23.328;2022-10-16T09:23:48;0.10;;;0.10;;
10839;SDS011;5473;42.706;23.328;2022-10-16T09:26:15;0.10;;;0.10;;
10839;SDS011;5473;42.706;23.328;2022-10-16T09:28:46;0.10;;;0.10;;
10839;SDS011;5473;42.706;23.328;2022-10-16T09:31:13;0.10;;;0.10;;
10839;SDS011;5473;42.706;23.328;2022-10-16T09:33:43;0.10;;;0.10;;
10839;SDS011;5473;42.706;23.328;2022-10-16T09:36:15;0.00;;;0.00;;
10839;SDS011;5473;42.706;23.328;2022-10-16T09:38:42;0.10;;;0.10;;
10839;SDS011;5473;42.706;23.328;2022-10-16T09:41:13;0.10;;;0.10;;
10839;SDS011;5473;42.706;23.328;2022-10-16T09:43:47;0.10;;;0.10;;
10839;SDS011;5473;42.706;23.328;2022-10-16T09:46:22;0.10;;;0.10;;
10839;SDS011;5473;42.706;23.328;2022-10-16T09:48:53;0.10;;;0.10;;
10839;SDS011;5473;42.706;23.328;2022-10-16T09:51:23;0.10;;;0.10;;
10839;SDS011;5473;42.706;23.328;2022-10-16T09:53:56;0.10;;;0.10;;
10839;SDS011;5473;42.706;23.328;2022-10-16T09:56:26;0.10;;;0.10;;
10839;SDS011;5473;42.706;23.328;2022-10-16T09:58:56;0.10;;;0.10;;
10839;SDS011;5473;42.706;23.328;2022-10-16T10:01:26;0.10;;;0.10;;
10839;SDS011;5473;42.706;23.328;2022-10-16T10:03:59;0.10;;;0.10;;
10839;SDS011;5473;42.706;23.328;2022-10-16T10:06:29;0.00;;;0.00;;
10839;SDS011;5473;42.706;23.328;2022-10-16T10:08:59;0.00;;;0.00;;
10839;SDS011;5473;42.706;23.328;2022-10-16T10:11:39;0.00;;;0.00;;
10839;SDS011;5473;42.706;23.328;2022-10-16T10:14:13;0.00;;;0.00;;
10839;SDS011;5473;42.706;23.328;2022-10-16T10:16:46;0.10;;;0.10;;
10839;SDS011;5473;42.706;23.328;2022-10-16T10:19:14;0.00;;;0.00;;
10839;SDS011;5473;42.706;23.328;2022-10-16T10:21:43;0.00;;;0.00;;
10839;SDS011;5473;42.706;23.328;2022-10-16T10:24:10;0.00;;;0.00;;
10839;SDS011;5473;42.706;23.328;2022-10-16T10:26:38;0.00;;;0.00;;
10839;SDS011;5473;42.706;23.328;2022-10-16T10:29:13;0.00;;;0.00;;
10839;SDS011;5473;42.706;23.328;2022-10-16T10:31:49;0.00;;;0.00;;
10839;SDS011;5473;42.706;23.328;2022-10-16T10:34:25;0.10;;;0.10;;
10839;SDS011;5473;42.706;23.328;2022-10-16T10:37:02;0.00;;;0.00;;
10839;SDS011;5473;42.706;23.328;2022-10-16T10:39:46;0.10;;;0.10;;
10839;SDS011;5473;42.706;23.328;2022-10-16T10:42:19;0.10;;;0.10;;
10839;SDS011;5473;42.706;23.328;2022-10-16T10:44:57;0.00;;;0.00;;
10839;SDS011;5473;42.706;23.328;2022-10-16T10:47:42;0.07;;;0.07;;
10839;SDS011;5473;42.706;23.328;2022-10-16T10:50:20;0.00;;;0.00;;
10839;SDS011;5473;42.706;23.328;2022-10-16T10:52:53;0.00;;;0.00;;
10839;SDS011;5473;42.706;23.328;2022-10-16T10:55:29;0.00;;;0.00;;
10839;SDS011;5473;42.706;23.328;2022-10-16T10:58:14;0.00;;;0.00;;
10839;SDS011;5473;42.706;23.328;2022-10-16T11:00:57;0.00;;;0.00;;
10839;SDS011;5473;42.706;23.328;2022-10-16T11:03:35;0.03;;;0.03;;
10839;SDS011;5473;42.706;23.328;2022-10-16T11:06:14;0.10;;;0.10;;
10839;SDS011;5473;42.706;23.328;2022-10-16T11:08:45;0.00;;;0.00;;
10839;SDS011;5473;42.706;23.328;2022-10-16T11:11:18;0.00;;;0.00;;
10839;SDS011;5473;42.706;23.328;2022-10-16T11:13:53;0.10;;;0.10;;
10839;SDS011;5473;42.706;23.328;2022-10-16T11:16:28;0.10;;;0.10;;
10839;SDS011;5473;42.706;23.328;2022-10-16T11:18:58;0.10;;;0.10;;
10839;SDS011;5473;42.706;23.328;2022-10-16T11:21:32;0.10;;;0.10;;
10839;SDS011;5473;42.706;23.328;2022-10-16T11:24:06;0.10;;;0.10;;
10839;SDS011;5473;42.706;23.328;2022-10-16T11:26:42;0.10;;;0.10;;
10839;SDS011;5473;42.706;23.328;2022-10-16T11:29:15;0.10;;;0.10;;
10839;SDS011;5473;42.706;23.328;2022-10-16T11:31:49;0.10;;;0.10;;
10839;SDS011;5473;42.706;23.328;2022-10-16T11:34:22;0.00;;;0.00;;
10839;SDS011;5473;42.706;23.328;2022-10-16T11:36:55;0.00;;;0.00;;
10839;SDS011;5473;42.706;23.328;2022-10-16T11:39:29;0.00;;;0.00;;
10839;SDS011;5473;42.706;23.328;2022-10-16T11:41:59;0.10;;;0.10;;
10839;SDS011;5473;42.706;23.328;2022-10-16T11:44:45;0.10;;;0.10;;
10839;SDS011;5473;42.706;23.328;2022-10-16T11:47:25;0.10;;;0.10;;
10839;SDS011;5473;42.706;23.328;2022-10-16T11:49:57;0.10;;;0.10;;
10839;SDS011;5473;42.706;23.328;2022-10-16T11:52:28;0.00;;;0.00;;
10839;SDS011;5473;42.706;23.328;2022-10-16T11:55:01;0.00;;;0.00;;
10839;SDS011;5473;42.706;23.328;2022-10-16T11:57:33;0.07;;;0.07;;
10839;SDS011;5473;42.706;23.328;2022-10-16T12:00:06;0.10;;;0.10;;
10839;SDS011;5473;42.706;23.328;2022-10-16T12:02:48;0.10;;;0.10;;
10839;SDS011;5473;42.706;23.328;2022-10-16T12:05:22;0.10;;;0.10;;
10839;SDS011;5473;42.706;23.328;2022-10-16T12:07:57;0.10;;;0.10;;
10839;SDS011;5473;42.706;23.328;2022-10-16T12:10:32;0.10;;;0.10;;
10839;SDS011;5473;42.706;23.328;2022-10-16T12:13:02;0.10;;;0.10;;
10839;SDS011;5473;42.706;23.328;2022-10-16T12:15:30;0.10;;;0.10;;
10839;SDS011;5473;42.706;23.328;2022-10-16T12:18:00;0.10;;;0.10;;
10839;SDS011;5473;42.706;23.328;2022-10-16T12:20:28;0.10;;;0.10;;
10839;SDS011;5473;42.706;23.328;2022-10-16T12:22:58;0.10;;;0.10;;
10839;SDS011;5473;42.706;23.328;2022-10-16T12:25:28;0.10;;;0.10;;
10839;SDS011;5473;42.706;23.328;2022-10-16T12:27:58;0.10;;;0.10;;
10839;SDS011;5473;42.706;23.328;2022-10-16T12:30:27;0.10;;;0.10;;
10839;SDS011;5473;42.706;23.328;2022-10-16T12:32:56;0.10;;;0.10;;
10839;SDS011;5473;42.706;23.328;2022-10-16T12:35:27;0.10;;;0.10;;
10839;SDS011;5473;42.706;23.328;2022-10-16T12:38:04;0.10;;;0.10;;
10839;SDS011;5473;42.706;23.328;2022-10-16T12:40:34;0.10;;;0.10;;
10839;SDS011;5473;42.706;23.328;2022-10-16T12:43:23;0.10;;;0.10;;
10839;SDS011;5473;42.706;23.328;2022-10-16T12:45:59;0.10;;;0.10;;
10839;SDS011;5473;42.706;23.328;2022-10-16T12:48:29;0.10;;;0.10;;
10839;SDS011;5473;42.706;23.328;2022-10-16T12:51:08;0.10;;;0.10;;
10839;SDS011;5473;42.706;23.328;2022-10-16T12:53:36;0.10;;;0.10;;
10839;SDS011;5473;42.706;23.328;2022-10-16T12:56:03;0.10;;;0.10;;
10839;SDS011;5473;42.706;23.328;2022-10-16T13:01:31;0.10;;;0.10;;
10839;SDS011;5473;42.706;23.328;2022-10-16T13:04:13;0.10;;;0.10;;
10839;SDS011;5473;42.706;23.328;2022-10-16T13:07:13;0.20;;;0.20;;
10839;SDS011;5473;42.706;23.328;2022-10-16T13:09:59;0.10;;;0.10;;
10839;SDS011;5473;42.706;23.328;2022-10-16T13:12:41;0.17;;;0.17;;
10839;SDS011;5473;42.706;23.328;2022-10-16T13:15:26;0.10;;;0.10;;
10839;SDS011;5473;42.706;23.328;2022-10-16T13:18:02;0.20;;;0.20;;
10839;SDS011;5473;42.706;23.328;2022-10-16T13:20:46;0.20;;;0.20;;
10839;SDS011;5473;42.706;23.328;2022-10-16T13:23:25;0.10;;;0.10;;
10839;SDS011;5473;42.706;23.328;2022-10-16T13:26:01;0.10;;;0.10;;
10839;SDS011;5473;42.706;23.328;2022-10-16T13:28:35;0.10;;;0.10;;
10839;SDS011;5473;42.706;23.328;2022-10-16T13:31:04;0.20;;;0.20;;
10839;SDS011;5473;42.706;23.328;2022-10-16T13:33:38;0.20;;;0.20;;
10839;SDS011;5473;42.706;23.328;2022-10-16T13:36:17;0.10;;;0.10;;
10839;SDS011;5473;42.706;23.328;2022-10-16T13:38:50;0.20;;;0.20;;
10839;SDS011;5473;42.706;23.328;2022-10-16T13:41:27;0.20;;;0.20;;
10839;SDS011;5473;42.706;23.328;2022-10-16T13:43:54;0.20;;;0.20;;
10839;SDS011;5473;42.706;23.328;2022-10-16T13:46:24;0.20;;;0.20;;
10839;SDS011;5473;42.706;23.328;2022-10-16T13:48:57;0.10;;;0.10;;
10839;SDS011;5473;42.706;23.328;2022-10-16T13:51:25;0.20;;;0.20;;
10839;SDS011;5473;42.706;23.328;2022-10-16T13:53:55;0.20;;;0.20;;
10839;SDS011;5473;42.706;23.328;2022-10-16T13:56:24;0.20;;;0.20;;
10839;SDS011;5473;42.706;23.328;2022-10-16T13:58:59;0.10;;;0.10;;
10839;SDS011;5473;42.706;23.328;2022-10-16T14:01:27;0.10;;;0.10;;
10839;SDS011;5473;42.706;23.328;2022-10-16T14:04:00;0.20;;;0.20;;
10839;SDS011;5473;42.706;23.328;2022-10-16T14:06:29;0.20;;;0.20;;
10839;SDS011;5473;42.706;23.328;2022-10-16T14:08:59;0.20;;;0.20;;
10839;SDS011;5473;42.706;23.328;2022-10-16T14:11:31;0.20;;;0.20;;
10839;SDS011;5473;42.706;23.328;2022-10-16T14:13:58;0.20;;;0.20;;
10839;SDS011;5473;42.706;23.328;2022-10-16T14:16:28;0.20;;;0.20;;
10839;SDS011;5473;42.706;23.328;2022-10-16T14:18:57;0.20;;;0.20;;
10839;SDS011;5473;42.706;23.328;2022-10-16T14:21:26;0.20;;;0.20;;
10839;SDS011;5473;42.706;23.328;2022-10-16T14:23:53;0.20;;;0.20;;
10839;SDS011;5473;42.706;23.328;2022-10-16T14:26:26;0.20;;;0.20;;
10839;SDS011;5473;42.706;23.328;2022-10-16T14:29:10;0.20;;;0.20;;
10839;SDS011;5473;42.706;23.328;2022-10-16T14:31:41;0.20;;;0.20;;
10839;SDS011;5473;42.706;23.328;2022-10-16T14:34:23;0.20;;;0.20;;
10839;SDS011;5473;42.706;23.328;2022-10-16T14:36:54;0.20;;;0.20;;
10839;SDS011;5473;42.706;23.328;2022-10-16T14:39:21;0.20;;;0.20;;
10839;SDS011;5473;42.706;23.328;2022-10-16T14:41:54;0.20;;;0.20;;
10839;SDS011;5473;42.706;23.328;2022-10-16T14:44:24;0.20;;;0.20;;
10839;SDS011;5473;42.706;23.328;2022-10-16T14:46:55;0.20;;;0.20;;
10839;SDS011;5473;42.706;23.328;2022-10-16T14:49:22;0.20;;;0.20;;
10839;SDS011;5473;42.706;23.328;2022-10-16T14:51:50;0.20;;;0.20;;
10839;SDS011;5473;42.706;23.328;2022-10-16T14:54:18;0.20;;;0.20;;
10839;SDS011;5473;42.706;23.328;2022-10-16T14:56:46;0.20;;;0.20;;
10839;SDS011;5473;42.706;23.328;2022-10-16T14:59:17;0.20;;;0.20;;
10839;SDS011;5473;42.706;23.328;2022-10-16T15:01:50;0.20;;;0.20;;
10839;SDS011;5473;42.706;23.328;2022-10-16T15:04:17;0.20;;;0.20;;
10839;SDS011;5473;42.706;23.328;2022-10-16T15:06:43;0.20;;;0.20;;
10839;SDS011;5473;42.706;23.328;2022-10-16T15:09:10;0.20;;;0.20;;
10839;SDS011;5473;42.706;23.328;2022-10-16T15:11:37;0.20;;;0.20;;
10839;SDS011;5473;42.706;23.328;2022-10-16T15:14:04;0.20;;;0.20;;